Time;durP1;ratioP1;P1;durP2;ratioP2;P2;SDS_P1;SDS_P2;PMS_P1;PMS_P2;Temp;Humidity;BMP_temperature;BMP_pressure;BME280_temperature;BME280_humidity;BME280_pressure;Samples;Min_cycle;Max_cycle;Signal;HPM_P1;HPM_P2
2022/05/22 00:01:40;;;;;;;;;;;563.80;2432.00;;;;;;5115167;28;20272;-79
2022/05/22 00:04:06;;;;;;;;;;;563.60;2432.00;;;;;;5116303;28;19915;-80
2022/05/22 00:06:32;;;;;;;;;;;563.50;2432.00;;;;;;5114763;28;19904;-80
2022/05/22 00:08:57;;;;;;;;;;;563.20;2432.00;;;;;;5122008;28;19904;-78
2022/05/22 00:11:23;;;;;;;;;;;538.50;2406.40;;;;;;5133465;28;19903;-77
2022/05/22 00:13:49;;;;;;;;;;;563.20;2432.00;;;;;;5131975;28;19910;-79
2022/05/22 00:18:59;;;;;;;;;;;563.40;2432.00;;;;;;5116177;28;19911;-80
2022/05/22 00:21:25;;;;;;;;;;;563.30;2432.00;;;;;;5114753;28;19907;-80
2022/05/22 00:23:51;;;;;;;;;;;538.50;2406.40;;;;;;5114796;28;20041;-80
2022/05/22 00:26:16;;;;;;;;;;;563.20;2432.00;;;;;;5114530;28;19904;-80
2022/05/22 00:28:42;;;;;;;;;;;538.50;2406.40;;;;;;5114699;28;20344;-80
2022/05/22 00:31:08;;;;;;;;;;;538.50;2406.40;;;;;;5114995;28;20347;-79
2022/05/22 00:33:33;;;;;;;;;;;563.20;2432.00;;;;;;5114437;28;19903;-79
2022/05/22 00:35:59;;;;;;;;;;;538.50;2406.40;;;;;;5115354;28;19947;-79
2022/05/22 00:38:25;;;;;;;;;;;563.20;2432.00;;;;;;5114090;28;19951;-79
2022/05/22 00:40:50;;;;;;;;;;;538.50;2406.40;;;;;;5114121;28;20264;-79
2022/05/22 00:43:33;;;;;;;;;;;538.50;2406.40;;;;;;5114045;28;19956;-79
2022/05/22 00:45:59;;;;;;;;;;;538.40;2406.40;;;;;;5114152;28;19904;-79
2022/05/22 00:48:26;;;;;;;;;;;538.50;2406.40;;;;;;5114774;28;19912;-79
2022/05/22 00:50:53;;;;;;;;;;;538.20;2406.40;;;;;;5113960;28;19912;-79
2022/05/22 00:53:20;;;;;;;;;;;538.20;2406.40;;;;;;5114044;28;19952;-79
2022/05/22 00:55:46;;;;;;;;;;;538.10;2406.40;;;;;;5113606;28;19915;-78
2022/05/22 00:58:14;;;;;;;;;;;538.20;2406.40;;;;;;5113627;28;19904;-79
2022/05/22 01:00:40;;;;;;;;;;;538.30;2406.40;;;;;;5113844;28;19904;-79
2022/05/22 01:05:51;;;;;;;;;;;538.30;2406.40;;;;;;5115081;28;19925;-79
2022/05/22 01:08:17;;;;;;;;;;;538.20;2406.40;;;;;;5113764;28;19903;-79
2022/05/22 01:10:43;;;;;;;;;;;538.00;2406.40;;;;;;5113431;28;20280;-79
2022/05/22 01:13:09;;;;;;;;;;;538.10;2406.40;;;;;;5113601;28;19904;-79
2022/05/22 01:15:35;;;;;;;;;;;538.00;2406.40;;;;;;5113365;28;19910;-79
2022/05/22 01:18:00;;;;;;;;;;;538.00;2406.40;;;;;;5112901;28;19903;-79
2022/05/22 01:20:26;;;;;;;;;;;538.00;2406.40;;;;;;5113649;28;19938;-79
2022/05/22 01:22:51;;;;;;;;;;;537.80;2406.40;;;;;;5113498;28;19980;-79
2022/05/22 01:25:17;;;;;;;;;;;537.70;2406.40;;;;;;5113159;28;19904;-79
2022/05/22 01:27:43;;;;;;;;;;;537.60;2406.40;;;;;;5113474;28;19907;-78
2022/05/22 01:30:11;;;;;;;;;;;537.70;2406.40;;;;;;5113177;28;19912;-79
2022/05/22 01:32:38;;;;;;;;;;;537.80;2406.40;;;;;;5113515;28;19910;-79
2022/05/22 01:35:04;;;;;;;;;;;512.90;2380.80;;;;;;5113525;28;20339;-79
2022/05/22 01:37:30;;;;;;;;;;;512.90;2380.80;;;;;;5114018;28;20006;-79
2022/05/22 01:39:55;;;;;;;;;;;512.90;2380.80;;;;;;5113526;28;19946;-79
2022/05/22 01:42:21;;;;;;;;;;;512.80;2380.80;;;;;;5113377;28;20375;-79
2022/05/22 01:44:47;;;;;;;;;;;512.80;2380.80;;;;;;5113325;28;19904;-79
2022/05/22 01:47:12;;;;;;;;;;;538.00;2406.40;;;;;;5113534;28;20368;-79
2022/05/22 01:49:38;;;;;;;;;;;512.90;2380.80;;;;;;5114766;28;19965;-79
2022/05/22 01:52:04;;;;;;;;;;;512.70;2380.80;;;;;;5113205;28;19904;-79
2022/05/22 01:54:29;;;;;;;;;;;512.80;2380.80;;;;;;5118675;28;19994;-80
2022/05/22 01:56:55;;;;;;;;;;;512.90;2380.80;;;;;;5113195;28;19941;-78
2022/05/22 01:59:21;;;;;;;;;;;512.80;2380.80;;;;;;5112839;28;20292;-80
2022/05/22 02:01:46;;;;;;;;;;;512.90;2380.80;;;;;;5113124;28;19904;-79
2022/05/22 02:04:12;;;;;;;;;;;512.90;2380.80;;;;;;5113102;28;19907;-79
2022/05/22 02:08:19;;;;;;;;;;;512.90;2380.80;;;;;;5112829;28;19910;-80
2022/05/22 02:09:26;;;;;;;;;;;512.90;2380.80;;;;;;5113837;28;19916;-79
2022/05/22 02:11:51;;;;;;;;;;;512.90;2380.80;;;;;;5113996;28;19904;-80
2022/05/22 02:14:17;;;;;;;;;;;512.80;2380.80;;;;;;5112793;28;19990;-79
2022/05/22 02:16:43;;;;;;;;;;;512.80;2380.80;;;;;;5112749;28;19904;-79
2022/05/22 02:19:10;;;;;;;;;;;512.80;2380.80;;;;;;5112766;28;19903;-80
2022/05/22 02:21:36;;;;;;;;;;;512.90;2380.80;;;;;;5112948;28;19958;-79
2022/05/22 02:24:02;;;;;;;;;;;512.70;2380.80;;;;;;5113057;28;19904;-80
2022/05/22 02:26:28;;;;;;;;;;;512.70;2380.80;;;;;;5112746;28;19904;-80
2022/05/22 02:28:53;;;;;;;;;;;512.70;2380.80;;;;;;5112777;28;19912;-80
2022/05/22 02:31:19;;;;;;;;;;;512.50;2380.80;;;;;;5112944;28;19911;-79
2022/05/22 02:33:44;;;;;;;;;;;512.30;2380.80;;;;;;5113633;28;19968;-80
2022/05/22 02:36:13;;;;;;;;;;;512.40;2380.80;;;;;;5112816;28;19910;-80
2022/05/22 02:38:42;;;;;;;;;;;512.50;2380.80;;;;;;5112589;28;20374;-80
2022/05/22 02:41:17;;;;;;;;;;;512.50;2380.80;;;;;;5112520;28;19911;-79
2022/05/22 02:43:43;;;;;;;;;;;512.40;2380.80;;;;;;5113965;28;19964;-79
2022/05/22 02:46:09;;;;;;;;;;;512.40;2380.80;;;;;;5112825;28;19947;-80
2022/05/22 02:48:35;;;;;;;;;;;512.30;2380.80;;;;;;5114390;28;20345;-79
2022/05/22 02:51:01;;;;;;;;;;;512.40;2380.80;;;;;;5116551;28;19904;-80
2022/05/22 02:53:26;;;;;;;;;;;512.40;2380.80;;;;;;5117732;27;19908;-79
2022/05/22 02:55:52;;;;;;;;;;;512.40;2380.80;;;;;;5116345;28;19904;-79
2022/05/22 02:58:18;;;;;;;;;;;512.30;2380.80;;;;;;5116587;28;20409;-79
2022/05/22 03:00:43;;;;;;;;;;;512.30;2380.80;;;;;;5118168;28;19904;-79
2022/05/22 03:03:09;;;;;;;;;;;512.20;2380.80;;;;;;5121481;27;19948;-79
2022/05/22 03:08:18;;;;;;;;;;;512.20;2380.80;;;;;;5122972;28;20405;-79
2022/05/22 03:10:44;;;;;;;;;;;512.10;2380.80;;;;;;5121329;28;19904;-79
2022/05/22 03:13:11;;;;;;;;;;;512.00;2380.80;;;;;;5124236;28;20025;-79
2022/05/22 03:15:36;;;;;;;;;;;487.30;2380.80;;;;;;5122348;28;19931;-80
2022/05/22 03:18:02;;;;;;;;;;;487.20;2380.80;;;;;;5122141;28;20348;-79
2022/05/22 03:20:30;;;;;;;;;;;487.10;2380.80;;;;;;5121259;28;20006;-80
2022/05/22 03:22:57;;;;;;;;;;;487.20;2380.80;;;;;;5122258;28;20263;-79
2022/05/22 03:25:23;;;;;;;;;;;487.20;2380.80;;;;;;5121537;28;19969;-79
2022/05/22 03:27:48;;;;;;;;;;;487.20;2380.80;;;;;;5122110;28;20348;-79
2022/05/22 03:30:14;;;;;;;;;;;487.20;2380.80;;;;;;5123322;28;19960;-79
2022/05/22 03:32:39;;;;;;;;;;;487.30;2380.80;;;;;;5122897;28;19904;-79
2022/05/22 03:35:05;;;;;;;;;;;487.20;2380.80;;;;;;5132994;28;19907;-80
2022/05/22 03:37:31;;;;;;;;;;;487.20;2380.80;;;;;;5141355;28;19920;-81
2022/05/22 03:39:56;;;;;;;;;;;487.30;2380.80;;;;;;5142235;28;19891;-79
2022/05/22 03:42:24;;;;;;;;;;;487.20;2380.80;;;;;;5141301;28;19891;-79
2022/05/22 03:44:50;;;;;;;;;;;487.20;2380.80;;;;;;5141034;28;19954;-78
2022/05/22 03:47:16;;;;;;;;;;;486.70;2380.80;;;;;;5141304;28;19919;-79
2022/05/22 03:49:41;;;;;;;;;;;487.10;2380.80;;;;;;5140842;28;19915;-78
2022/05/22 03:52:07;;;;;;;;;;;487.00;2380.80;;;;;;5139929;28;19930;-78
2022/05/22 03:54:32;;;;;;;;;;;487.00;2380.80;;;;;;5140767;28;19895;-78
2022/05/22 03:56:58;;;;;;;;;;;487.00;2380.80;;;;;;5140798;28;19922;-78
2022/05/22 03:59:24;;;;;;;;;;;487.00;2380.80;;;;;;5140855;28;19898;-78
2022/05/22 04:01:50;;;;;;;;;;;487.00;2380.80;;;;;;5139895;28;19926;-79
2022/05/22 04:04:16;;;;;;;;;;;487.10;2380.80;;;;;;5116028;28;19956;-79
2022/05/22 04:06:42;;;;;;;;;;;487.10;2380.80;;;;;;5115375;28;20385;-79
2022/05/22 04:09:08;;;;;;;;;;;487.20;2380.80;;;;;;5115989;28;20375;-79
2022/05/22 04:11:34;;;;;;;;;;;487.30;2380.80;;;;;;5114744;28;19904;-79
2022/05/22 04:13:59;;;;;;;;;;;512.00;2380.80;;;;;;5116662;28;20283;-79
2022/05/22 04:16:25;;;;;;;;;;;487.30;2380.80;;;;;;5114879;28;19914;-79
2022/05/22 04:18:51;;;;;;;;;;;512.00;2380.80;;;;;;5116185;28;19972;-79
2022/05/22 04:21:16;;;;;;;;;;;487.20;2380.80;;;;;;5114891;28;19904;-79
2022/05/22 04:26:30;;;;;;;;;;;512.10;2380.80;;;;;;5115771;28;19960;-80
2022/05/22 04:28:56;;;;;;;;;;;512.00;2380.80;;;;;;5114492;28;20372;-79
2022/05/22 04:31:21;;;;;;;;;;;512.30;2380.80;;;;;;5114136;28;20003;-79
2022/05/22 04:33:47;;;;;;;;;;;512.10;2380.80;;;;;;5114210;28;19949;-80
2022/05/22 04:36:12;;;;;;;;;;;512.20;2380.80;;;;;;5116015;28;19939;-80
2022/05/22 04:38:38;;;;;;;;;;;512.20;2380.80;;;;;;5114202;28;19916;-79
2022/05/22 04:41:04;;;;;;;;;;;512.30;2380.80;;;;;;5115115;27;20343;-79
2022/05/22 04:43:30;;;;;;;;;;;512.30;2380.80;;;;;;5114281;28;19952;-79
2022/05/22 04:45:56;;;;;;;;;;;512.20;2380.80;;;;;;5113855;28;19907;-78
2022/05/22 04:48:23;;;;;;;;;;;512.10;2380.80;;;;;;5114176;28;19908;-79
2022/05/22 04:50:49;;;;;;;;;;;512.10;2380.80;;;;;;5114100;28;19904;-79
2022/05/22 04:53:16;;;;;;;;;;;512.20;2380.80;;;;;;5113777;28;20265;-79
2022/05/22 04:55:41;;;;;;;;;;;512.30;2380.80;;;;;;5114000;28;20374;-79
2022/05/22 04:58:07;;;;;;;;;;;512.30;2380.80;;;;;;5114943;28;19986;-79
2022/05/22 05:00:33;;;;;;;;;;;512.30;2380.80;;;;;;5113532;28;19951;-79
2022/05/22 05:02:59;;;;;;;;;;;512.30;2380.80;;;;;;5113813;28;20359;-79
2022/05/22 05:05:24;;;;;;;;;;;512.40;2380.80;;;;;;5115414;28;19904;-79
2022/05/22 05:07:50;;;;;;;;;;;512.40;2380.80;;;;;;5113460;28;19903;-79
2022/05/22 05:10:16;;;;;;;;;;;512.40;2380.80;;;;;;5112699;28;19954;-79
2022/05/22 05:12:42;;;;;;;;;;;512.40;2380.80;;;;;;5113676;28;19961;-79
2022/05/22 05:15:09;;;;;;;;;;;512.10;2380.80;;;;;;5113467;28;19904;-79
2022/05/22 05:17:34;;;;;;;;;;;487.30;2380.80;;;;;;5113699;28;20333;-79
2022/05/22 05:20:00;;;;;;;;;;;512.00;2380.80;;;;;;5113702;28;19904;-79
2022/05/22 05:22:30;;;;;;;;;;;512.10;2380.80;;;;;;5114526;28;19950;-79
2022/05/22 05:24:55;;;;;;;;;;;512.10;2380.80;;;;;;5113226;28;19903;-79
2022/05/22 05:27:21;;;;;;;;;;;512.20;2380.80;;;;;;5113451;28;20322;-79
2022/05/22 05:29:47;;;;;;;;;;;512.30;2380.80;;;;;;5113238;28;19911;-79
2022/05/22 05:32:12;;;;;;;;;;;512.30;2380.80;;;;;;5112963;28;20264;-79
2022/05/22 05:34:38;;;;;;;;;;;512.30;2380.80;;;;;;5114467;28;19980;-79
2022/05/22 05:37:03;;;;;;;;;;;512.40;2380.80;;;;;;5114406;28;20336;-80
2022/05/22 05:39:29;;;;;;;;;;;512.40;2380.80;;;;;;5112897;28;19965;-79
2022/05/22 05:41:56;;;;;;;;;;;512.60;2380.80;;;;;;5113326;28;19962;-79
2022/05/22 05:44:22;;;;;;;;;;;512.40;2380.80;;;;;;5114614;28;19927;-80
2022/05/22 05:46:48;;;;;;;;;;;512.50;2380.80;;;;;;5113920;28;20360;-80
2022/05/22 05:49:14;;;;;;;;;;;512.40;2380.80;;;;;;5113237;28;19915;-81
2022/05/22 05:51:40;;;;;;;;;;;512.50;2380.80;;;;;;5113367;28;20345;-80
2022/05/22 05:54:06;;;;;;;;;;;512.40;2380.80;;;;;;5113325;28;19931;-80
2022/05/22 05:56:31;;;;;;;;;;;512.40;2380.80;;;;;;5113383;28;20268;-81
2022/05/22 05:58:57;;;;;;;;;;;512.90;2380.80;;;;;;5113336;28;19954;-80
2022/05/22 06:01:24;;;;;;;;;;;512.40;2380.80;;;;;;5114236;28;19911;-80
2022/05/22 06:03:53;;;;;;;;;;;512.50;2380.80;;;;;;5113286;28;20272;-80
2022/05/22 06:06:19;;;;;;;;;;;512.50;2380.80;;;;;;5114570;28;19904;-80
2022/05/22 06:08:44;;;;;;;;;;;512.60;2380.80;;;;;;5113128;28;19908;-81
2022/05/22 06:11:10;;;;;;;;;;;512.70;2380.80;;;;;;5115217;28;19950;-80
2022/05/22 06:13:36;;;;;;;;;;;512.70;2380.80;;;;;;5116690;28;20393;-81
2022/05/22 06:16:04;;;;;;;;;;;512.80;2380.80;;;;;;5118101;28;19903;-81
2022/05/22 06:18:29;;;;;;;;;;;512.90;2380.80;;;;;;5115468;28;20267;-82
2022/05/22 06:20:55;;;;;;;;;;;512.90;2380.80;;;;;;5116118;28;19943;-81
2022/05/22 06:23:21;;;;;;;;;;;537.60;2406.40;;;;;;5117442;28;19904;-81
2022/05/22 06:25:46;;;;;;;;;;;537.60;2406.40;;;;;;5117130;28;20414;-81
2022/05/22 06:28:13;;;;;;;;;;;537.60;2406.40;;;;;;5116400;28;19904;-82
2022/05/22 06:30:38;;;;;;;;;;;537.70;2406.40;;;;;;5117021;28;20345;-82
2022/05/22 06:33:08;;;;;;;;;;;537.70;2406.40;;;;;;5116842;28;19994;-81
2022/05/22 06:35:34;;;;;;;;;;;537.80;2406.40;;;;;;5116564;28;19904;-81
2022/05/22 06:38:00;;;;;;;;;;;537.90;2406.40;;;;;;5116477;28;19915;-82
2022/05/22 06:40:26;;;;;;;;;;;538.10;2406.40;;;;;;5116811;28;19927;-83
2022/05/22 06:42:51;;;;;;;;;;;538.10;2406.40;;;;;;5116838;28;19904;-83
2022/05/22 06:45:22;;;;;;;;;;;538.20;2406.40;;;;;;5116658;28;19927;-82
2022/05/22 06:47:48;;;;;;;;;;;538.30;2406.40;;;;;;5116725;28;19910;-83
2022/05/22 06:50:16;;;;;;;;;;;538.40;2406.40;;;;;;5116426;28;19915;-82
2022/05/22 06:52:41;;;;;;;;;;;538.50;2406.40;;;;;;5116433;28;20000;-82
2022/05/22 06:55:07;;;;;;;;;;;563.40;2432.00;;;;;;5116507;28;19903;-82
2022/05/22 06:57:33;;;;;;;;;;;563.60;2432.00;;;;;;5117280;28;20416;-82
2022/05/22 06:59:59;;;;;;;;;;;563.60;2432.00;;;;;;5116085;28;19904;-80
2022/05/22 07:02:27;;;;;;;;;;;563.60;2432.00;;;;;;5116202;28;19926;-82
2022/05/22 07:04:55;;;;;;;;;;;563.70;2432.00;;;;;;5116164;28;19904;-82
2022/05/22 07:07:21;;;;;;;;;;;563.70;2432.00;;;;;;5116214;28;19903;-82
2022/05/22 07:09:47;;;;;;;;;;;563.70;2432.00;;;;;;5116208;28;19916;-82
2022/05/22 07:12:14;;;;;;;;;;;563.50;2432.00;;;;;;5116603;28;19943;-82
2022/05/22 07:14:39;;;;;;;;;;;563.50;2432.00;;;;;;5116825;28;19910;-82
2022/05/22 07:17:05;;;;;;;;;;;563.40;2432.00;;;;;;5116302;28;19962;-82
2022/05/22 07:19:34;;;;;;;;;;;563.30;2432.00;;;;;;5117295;28;19904;-82
2022/05/22 07:22:01;;;;;;;;;;;563.30;2432.00;;;;;;5123104;28;19888;-80
2022/05/22 07:24:27;;;;;;;;;;;563.20;2432.00;;;;;;5138576;28;19921;-78
2022/05/22 07:26:53;;;;;;;;;;;538.50;2406.40;;;;;;5140724;28;19906;-80
2022/05/22 07:29:18;;;;;;;;;;;563.20;2432.00;;;;;;5124135;28;19907;-81
2022/05/22 07:31:44;;;;;;;;;;;563.20;2432.00;;;;;;5115733;28;20003;-80
2022/05/22 07:34:09;;;;;;;;;;;538.50;2406.40;;;;;;5115007;28;19903;-81
2022/05/22 07:36:35;;;;;;;;;;;563.20;2432.00;;;;;;5115735;28;19911;-81
2022/05/22 07:39:01;;;;;;;;;;;563.20;2432.00;;;;;;5115455;28;19955;-81
2022/05/22 07:41:26;;;;;;;;;;;563.30;2432.00;;;;;;5115735;28;20019;-80
2022/05/22 07:43:52;;;;;;;;;;;563.30;2432.00;;;;;;5115534;28;19926;-80
2022/05/22 07:46:17;;;;;;;;;;;563.30;2432.00;;;;;;5115079;28;19904;-81
2022/05/22 07:48:44;;;;;;;;;;;563.30;2432.00;;;;;;5115471;28;19955;-81
2022/05/22 07:51:11;;;;;;;;;;;563.30;2432.00;;;;;;5115627;28;19968;-81
2022/05/22 07:53:36;;;;;;;;;;;563.40;2432.00;;;;;;5115010;28;19914;-81
2022/05/22 07:56:02;;;;;;;;;;;563.40;2432.00;;;;;;5115531;28;19904;-81
2022/05/22 07:58:28;;;;;;;;;;;563.50;2432.00;;;;;;5114932;28;19908;-80
2022/05/22 08:00:55;;;;;;;;;;;563.50;2432.00;;;;;;5115473;28;19910;-81
2022/05/22 08:03:20;;;;;;;;;;;563.50;2432.00;;;;;;5115201;28;19904;-81
2022/05/22 08:05:47;;;;;;;;;;;563.60;2432.00;;;;;;5116073;28;19911;-81
2022/05/22 08:08:12;;;;;;;;;;;563.70;2432.00;;;;;;5115092;28;19911;-81
2022/05/22 08:10:39;;;;;;;;;;;563.70;2432.00;;;;;;5116307;28;19912;-80
2022/05/22 08:22:15;;;;;;;;;;;564.10;2432.00;;;;;;5115856;28;20354;-80
2022/05/22 08:24:40;;;;;;;;;;;564.00;2432.00;;;;;;5114854;28;19911;-80
2022/05/22 08:27:06;;;;;;;;;;;564.00;2432.00;;;;;;5116234;28;19907;-82
2022/05/22 08:29:32;;;;;;;;;;;563.80;2432.00;;;;;;5114811;28;19908;-81
2022/05/22 08:31:57;;;;;;;;;;;563.80;2432.00;;;;;;5114622;28;19908;-81
2022/05/22 08:34:23;;;;;;;;;;;563.90;2432.00;;;;;;5115537;28;19935;-81
2022/05/22 08:36:51;;;;;;;;;;;563.90;2432.00;;;;;;5114513;28;19904;-81
2022/05/22 08:39:17;;;;;;;;;;;563.90;2432.00;;;;;;5114165;28;20429;-81
2022/05/22 08:41:48;;;;;;;;;;;564.00;2432.00;;;;;;5114113;28;19955;-80
2022/05/22 08:44:15;;;;;;;;;;;564.00;2432.00;;;;;;5114383;28;19904;-81
2022/05/22 08:47:03;;;;;;;;;;;563.90;2432.00;;;;;;5114631;28;19903;-81
2022/05/22 08:49:52;;;;;;;;;;;563.90;2432.00;;;;;;5083411;28;19912;-81
2022/05/22 08:52:17;;;;;;;;;;;564.10;2432.00;;;;;;5110018;28;19904;-82
2022/05/22 08:54:46;;;;;;;;;;;564.10;2432.00;;;;;;5114496;28;19925;-81
2022/05/22 09:00:17;;;;;;;;;;;588.90;2432.00;;;;;;5115155;28;19947;-78
2022/05/22 09:02:45;;;;;;;;;;;589.00;2432.00;;;;;;5113898;28;19943;-79
2022/05/22 09:05:13;;;;;;;;;;;589.00;2432.00;;;;;;5113922;28;19935;-78
2022/05/22 09:07:53;;;;;;;;;;;589.10;2432.00;;;;;;5114100;28;19950;-82
2022/05/22 09:10:22;;;;;;;;;;;589.30;2432.00;;;;;;5114965;28;19961;-81
2022/05/22 09:13:06;;;;;;;;;;;589.40;2432.00;;;;;;5113881;28;20006;-79
2022/05/22 09:15:55;;;;;;;;;;;589.30;2432.00;;;;;;5113770;28;19904;-80
2022/05/22 09:18:33;;;;;;;;;;;589.30;2432.00;;;;;;5105250;28;19903;-81
2022/05/22 09:21:01;;;;;;;;;;;589.30;2432.00;;;;;;5113845;28;19911;-81
2022/05/22 09:23:46;;;;;;;;;;;589.20;2432.00;;;;;;5113365;28;19903;-80
2022/05/22 09:26:20;;;;;;;;;;;589.20;2432.00;;;;;;5114903;28;19904;-80
2022/05/22 09:28:46;;;;;;;;;;;589.30;2432.00;;;;;;5114691;28;19915;-81
2022/05/22 09:31:16;;;;;;;;;;;589.20;2432.00;;;;;;5114866;28;19908;-81
2022/05/22 09:33:54;;;;;;;;;;;589.40;2432.00;;;;;;5113421;28;19939;-81
2022/05/22 09:36:26;;;;;;;;;;;589.50;2432.00;;;;;;5113677;28;19904;-78
2022/05/22 09:39:10;;;;;;;;;;;589.60;2432.00;;;;;;5113921;28;19915;-80
2022/05/22 09:41:36;;;;;;;;;;;589.70;2432.00;;;;;;5113470;28;20001;-79
2022/05/22 09:44:01;;;;;;;;;;;589.70;2432.00;;;;;;5113072;28;19903;-80
2022/05/22 09:46:36;;;;;;;;;;;589.70;2432.00;;;;;;5113386;28;19904;-79
2022/05/22 09:49:11;;;;;;;;;;;614.40;2406.40;;;;;;5113325;28;20413;-78
2022/05/22 09:51:52;;;;;;;;;;;589.70;2406.40;;;;;;5114551;28;19918;-79
2022/05/22 09:54:27;;;;;;;;;;;614.40;2406.40;;;;;;5113297;28;20310;-81
2022/05/22 09:56:55;;;;;;;;;;;614.40;2380.80;;;;;;5114508;28;19927;-81
2022/05/22 09:59:50;;;;;;;;;;;614.40;2329.60;;;;;;5117437;28;19904;-81
2022/05/22 10:02:20;;;;;;;;;;;614.40;2329.60;;;;;;5103589;28;20309;-82
2022/05/22 10:05:07;;;;;;;;;;;614.40;2304.00;;;;;;5117498;28;19998;-82
2022/05/22 10:07:37;;;;;;;;;;;614.40;2304.00;;;;;;5117383;28;20261;-82
2022/05/22 10:10:03;;;;;;;;;;;614.50;2278.40;;;;;;5117510;28;19956;-79
2022/05/22 10:12:28;;;;;;;;;;;614.70;2252.80;;;;;;5117067;28;19907;-77
2022/05/22 10:14:54;;;;;;;;;;;614.90;2227.20;;;;;;5117104;28;19904;-77
2022/05/22 10:17:23;;;;;;;;;;;615.10;2201.60;;;;;;5117285;28;19954;-80
2022/05/22 10:19:48;;;;;;;;;;;615.10;2176.00;;;;;;5116996;28;19904;-80
2022/05/22 10:22:22;;;;;;;;;;;615.30;2150.40;;;;;;5117411;28;19956;-79
2022/05/22 10:25:08;;;;;;;;;;;640.10;2124.80;;;;;;5117303;28;19972;-79
2022/05/22 10:27:37;;;;;;;;;;;640.50;2073.60;;;;;;5116856;28;19907;-76
2022/05/22 10:30:11;;;;;;;;;;;640.60;1996.80;;;;;;5115835;28;19919;-79
2022/05/22 10:32:42;;;;;;;;;;;640.50;1996.80;;;;;;5114412;28;20352;-80
2022/05/22 10:35:18;;;;;;;;;;;640.50;1996.80;;;;;;5114286;28;20405;-79
2022/05/22 10:37:46;;;;;;;;;;;640.40;1996.80;;;;;;5115643;27;19916;-78
2022/05/22 10:40:23;;;;;;;;;;;640.40;1996.80;;;;;;5116404;28;20336;-79
2022/05/22 10:42:51;;;;;;;;;;;640.40;1996.80;;;;;;5116401;28;19907;-79
2022/05/22 10:45:36;;;;;;;;;;;640.30;1996.80;;;;;;5116534;28;19904;-79
2022/05/22 10:48:12;;;;;;;;;;;640.30;1996.80;;;;;;5117463;28;19946;-79
2022/05/22 10:50:50;;;;;;;;;;;640.30;1996.80;;;;;;5116098;28;20364;-79
2022/05/22 10:53:26;;;;;;;;;;;640.10;2022.40;;;;;;5114478;28;19918;-80
2022/05/22 10:55:58;;;;;;;;;;;640.00;1996.80;;;;;;5116319;28;19904;-80
2022/05/22 10:58:26;;;;;;;;;;;640.00;1996.80;;;;;;5116205;28;19904;-81
2022/05/22 11:00:53;;;;;;;;;;;615.20;2022.40;;;;;;5113774;28;19911;-80
2022/05/22 11:03:23;;;;;;;;;;;615.10;2022.40;;;;;;5114035;28;19907;-82
2022/05/22 11:05:51;;;;;;;;;;;615.00;2048.00;;;;;;5116271;28;19918;-81
2022/05/22 11:08:28;;;;;;;;;;;615.10;2073.60;;;;;;5114635;28;19924;-81
2022/05/22 11:10:54;;;;;;;;;;;615.00;2073.60;;;;;;5116170;28;19918;-81
2022/05/22 11:13:22;;;;;;;;;;;615.00;2099.20;;;;;;5116117;28;19945;-81
2022/05/22 11:15:47;;;;;;;;;;;614.90;2099.20;;;;;;5115528;28;19911;-81
2022/05/22 11:18:24;;;;;;;;;;;614.90;2124.80;;;;;;5115880;28;19908;-81
2022/05/22 11:20:58;;;;;;;;;;;614.90;2124.80;;;;;;5115966;28;20280;-79
2022/05/22 11:23:37;;;;;;;;;;;614.90;2150.40;;;;;;5115928;28;19911;-83
2022/05/22 11:26:25;;;;;;;;;;;614.90;2150.40;;;;;;5116835;28;19903;-80
2022/05/22 11:29:09;;;;;;;;;;;614.90;2176.00;;;;;;5115700;28;19947;-80
2022/05/22 11:31:54;;;;;;;;;;;615.10;2176.00;;;;;;5116255;28;19922;-81
2022/05/22 11:34:35;;;;;;;;;;;615.10;2176.00;;;;;;5116127;28;19904;-81
2022/05/22 11:37:06;;;;;;;;;;;615.20;2176.00;;;;;;5115608;28;19956;-78
2022/05/22 11:39:37;;;;;;;;;;;615.30;2176.00;;;;;;5115679;28;20387;-81
2022/05/22 11:42:21;;;;;;;;;;;640.00;2150.40;;;;;;5116355;28;19908;-83
2022/05/22 11:44:56;;;;;;;;;;;640.10;2150.40;;;;;;5115959;28;20272;-82
2022/05/22 11:47:40;;;;;;;;;;;640.40;2124.80;;;;;;5115782;28;19911;-84
2022/05/22 11:50:20;;;;;;;;;;;640.40;2124.80;;;;;;5115386;28;20596;-80
2022/05/22 11:52:54;;;;;;;;;;;640.50;2099.20;;;;;;5115318;28;19908;-81
2022/05/22 11:55:20;;;;;;;;;;;666.30;2073.60;;;;;;5115414;28;19904;-82
2022/05/22 11:57:59;;;;;;;;;;;666.20;2073.60;;;;;;5115115;28;19927;-81
2022/05/22 12:00:35;;;;;;;;;;;666.00;2022.40;;;;;;5115301;28;19907;-79
2022/05/22 12:03:11;;;;;;;;;;;666.00;2022.40;;;;;;5113833;28;19915;-81
2022/05/22 12:05:40;;;;;;;;;;;666.40;1996.80;;;;;;5113245;28;19989;-81
2022/05/22 12:08:16;;;;;;;;;;;691.30;1971.20;;;;;;5115001;28;19911;-82
2022/05/22 12:11:17;;;;;;;;;;;691.20;1996.80;;;;;;5115877;27;19915;-82
2022/05/22 12:13:46;;;;;;;;;;;691.70;1945.60;;;;;;5036458;28;19908;-79
2022/05/22 12:16:19;;;;;;;;;;;692.00;1920.00;;;;;;5099285;28;19908;-80
2022/05/22 12:18:54;;;;;;;;;;;717.00;1920.00;;;;;;5114458;28;20376;-80
2022/05/22 12:21:49;;;;;;;;;;;717.10;1817.60;;;;;;5114360;28;20371;-80
2022/05/22 12:24:38;;;;;;;;;;;717.70;1843.20;;;;;;5096526;28;19995;-82
2022/05/22 12:27:07;;;;;;;;;;;742.50;1843.20;;;;;;5103525;28;20280;-80
2022/05/22 12:29:41;;;;;;;;;;;742.60;1792.00;;;;;;5114524;28;20314;-85
2022/05/22 12:32:14;;;;;;;;;;;742.80;1766.40;;;;;;5114272;28;19919;-81
2022/05/22 12:34:44;;;;;;;;;;;742.80;1766.40;;;;;;5114799;28;20275;-80
2022/05/22 12:37:11;;;;;;;;;;;743.10;1715.20;;;;;;5114262;28;19911;-82
2022/05/22 12:39:50;;;;;;;;;;;743.00;1664.00;;;;;;5115017;28;19923;-81
2022/05/22 12:42:19;;;;;;;;;;;743.00;1587.20;;;;;;5112358;28;19903;-79
2022/05/22 12:44:45;;;;;;;;;;;742.90;1587.20;;;;;;5114150;28;20030;-81
2022/05/22 12:47:14;;;;;;;;;;;743.00;1561.60;;;;;;5111766;27;20335;-82
2022/05/22 12:49:40;;;;;;;;;;;768.00;1587.20;;;;;;5114488;28;19919;-81
2022/05/22 12:52:15;;;;;;;;;;;743.20;1638.40;;;;;;5112309;28;19915;-80
2022/05/22 12:54:41;;;;;;;;;;;768.10;1612.80;;;;;;5113873;28;19908;-81
2022/05/22 12:57:10;;;;;;;;;;;768.30;1587.20;;;;;;5114113;28;20284;-80
2022/05/22 12:59:36;;;;;;;;;;;768.30;1536.00;;;;;;5112179;28;19912;-81
2022/05/22 13:02:02;;;;;;;;;;;768.30;1561.60;;;;;;5115045;28;19914;-81
2022/05/22 13:04:36;;;;;;;;;;;768.50;1561.60;;;;;;5113817;28;19904;-81
2022/05/22 13:07:03;;;;;;;;;;;768.60;1587.20;;;;;;5114854;28;20344;-81
2022/05/22 13:09:40;;;;;;;;;;;768.70;1612.80;;;;;;5113760;28;19957;-81
2022/05/22 13:12:09;;;;;;;;;;;768.20;1587.20;;;;;;5113915;28;19907;-81
2022/05/22 13:14:41;;;;;;;;;;;768.20;1587.20;;;;;;5113517;28;19903;-82
2022/05/22 13:17:08;;;;;;;;;;;768.90;1587.20;;;;;;5113653;28;19908;-80
2022/05/22 13:19:34;;;;;;;;;;;793.70;1587.20;;;;;;5113625;28;20339;-81
2022/05/22 13:22:12;;;;;;;;;;;793.80;1587.20;;;;;;5113357;28;19990;-80
2022/05/22 13:24:48;;;;;;;;;;;768.60;1587.20;;;;;;5113521;28;19907;-81
2022/05/22 13:27:43;;;;;;;;;;;768.60;1561.60;;;;;;5114590;28;19904;-81
2022/05/22 13:30:09;;;;;;;;;;;768.30;1561.60;;;;;;5096037;28;19998;-79
2022/05/22 13:32:43;;;;;;;;;;;768.20;1587.20;;;;;;5092278;28;19943;-79
2022/05/22 13:35:18;;;;;;;;;;;768.40;1561.60;;;;;;5092590;28;19904;-80
2022/05/22 13:37:47;;;;;;;;;;;768.10;1561.60;;;;;;5092630;28;19916;-79
2022/05/22 13:40:18;;;;;;;;;;;768.60;1561.60;;;;;;5093189;28;19953;-81
2022/05/22 13:42:56;;;;;;;;;;;768.70;1536.00;;;;;;5109804;28;19915;-78
2022/05/22 13:45:33;;;;;;;;;;;793.90;1561.60;;;;;;5114166;28;19904;-79
2022/05/22 13:48:08;;;;;;;;;;;794.00;1484.80;;;;;;5113275;28;19904;-79
2022/05/22 13:53:26;;;;;;;;;;;794.50;1510.40;;;;;;5114176;28;19914;-78
2022/05/22 13:55:53;;;;;;;;;;;794.40;1484.80;;;;;;5112869;28;19910;-79
2022/05/22 13:58:24;;;;;;;;;;;819.40;1510.40;;;;;;5113128;28;19903;-80
2022/05/22 14:00:51;;;;;;;;;;;819.40;1459.20;;;;;;5114786;28;19903;-79
2022/05/22 14:03:19;;;;;;;;;;;794.50;1459.20;;;;;;5112892;28;19907;-78
2022/05/22 14:05:45;;;;;;;;;;;819.30;1433.60;;;;;;5113405;28;19952;-79
2022/05/22 14:08:15;;;;;;;;;;;819.60;1433.60;;;;;;5113480;28;19911;-80
2022/05/22 14:10:41;;;;;;;;;;;819.40;1408.00;;;;;;5113958;28;19915;-79
2022/05/22 14:13:12;;;;;;;;;;;819.50;1433.60;;;;;;5115144;28;20272;-79
2022/05/22 14:15:38;;;;;;;;;;;819.70;1459.20;;;;;;5113060;28;19915;-79
2022/05/22 14:18:14;;;;;;;;;;;819.90;1433.60;;;;;;5113950;28;19912;-77